Vliegtuigongeval op 22 JAN 2014 met Antonov An-24RV RA-46473 - Moskva-Domodedovo Airport (DME)
ASN logo
 

Status:5
Datum:woensdag 22 januari 2014
Tijd:08:19
Type:Silhouette image of generic AN24 model; specific model in this crash may look slightly different
Antonov An-24RV
Luchtvaartmaatschappij:Pskovavia
Registratie: RA-46473
Constructienummer: 27308101
Bouwjaar: 1972
Bemanning:slachtoffers: 0 / inzittenden: 4
Passagiers:slachtoffers: 0 / inzittenden: 24
Totaal:slachtoffers: 0 / inzittenden: 28
Schade: Afgeschreven
Gevolgen: Written off (damaged beyond repair)
Plaats:Moskva-Domodedovo Airport (DME) (   Rusland)
Fase: Landing (LDG)
Soort vlucht:Binnenlandse lijnvlucht
Vliegveld van vertrek:Pskov Airport (PKV/ULOO), Rusland
Vliegveld van aankomst:Moskva-Domodedovo Airport (DME/UUDD), Rusland
Beschrijving:
The Antonov An-24RV touched down between runway 14R and the airport boundary in poor visibility and sustained serious damage.

Bronnen:
» Soviet Transports
» Domodedovo Airport press statement

METAR Weather report:
04:00 UTC / 08:00 local time:
UUDD 220400Z 07002MPS 0150 R14R/0500N R14L/P1500 FZFG VV001 M22/M24 Q1025 64420195 14420195 NOSIG RMK QBB050

04:30 UTC / 08:30 local time:
UUDD 220430Z 00000MPS 0300 R32R/0600V0900U FZFG VV002 M21/M24 Q1025 82420195 NOSIG RMK QBB060

05:00 UTC / 09:00 local time:
UUDD 220500Z 00000MPS 0700 R32R/0800VP1500N FZFG VV002 M21/M24 Q1025 82420195 TEMPO 0300


Foto's

Add your photo of this accident or aircraft

Kaart
Deze kaart geeft het vliegveld van vetrek weer en de geplande bestemming van de vlucht. De lijn tussen de vliegvelden geeft niet de exacte vliegroute weer.
De afstand tussen Pskov Airport en Moskva-Domodedovo Airport bedraagt 634 km (396 miles).

This information is not presented as the Flight Safety Foundation or the Aviation Safety Network’s opinion as to the cause of the accident. It is preliminary and is based on the facts as they are known at this time.
languages: languages

Share

The Aviation Safety Network is an exclusive service provided by:
Quick Links:

CONNECT WITH US: FSF on social media FSF Facebook FSF Twitter FSF Youtube FSF LinkedIn FSF Instagram

©2024 Flight Safety Foundation

1920 Ballenger Av, 4th Fl.
Alexandria, Virginia 22314
www.FlightSafety.org